Hobbs, NM

5:06 AM MDT on March 27, 2017 (GMT -0600)
NW Hobbs NM | | Change Station
Active Advisory: Fire Weather Watch

Elev 3637 ft 32.74 °N, 103.15 °W | Updated 6 seconds ago

Clear
Clear
42.7 °F
Feels Like 43 °F
N
3.0
Wind Variable Wind from NE
Gusts 10.0 mph

Today
High -- | Low -- °F
--% Chance of Precip.
Yesterday
High -- | Low -- °F
Precip. -- in
Pressure 29.96 in
Visibility 10.0 miles
Clouds Clear
Windchill 43 °F
Dew Point 35 °F
Humidity 73%
Rainfall 0.00 in
Snow Depth Not available.
6:46 AM 7:09 PM
Waning Crescent, 1% visible
METAR KHOB 271055Z AUTO 36009KT 10SM CLR 06/01 A2996 RMK AO2
Pressure 29.96 in
Visibility 10.0 miles
Clouds Clear
Windchill 43 °F
Dew Point 35 °F
Humidity 73%
Rainfall 0.00 in
Snow Depth Not available.
6:46 AM 7:09 PM
Waning Crescent, 1% visible
METAR KHOB 271055Z AUTO 36009KT 10SM CLR 06/01 A2996 RMK AO2

Get Your Daily Forecast Email!

Thanks for signing up!

Be on the lookout for a verification email in your inbox.

You'll start receiving severe weather alerts in your inbox..

×

10-Day Weather Forecast

Almanac

Astronomy

Mar. 27, 2017 Rise Set
Actual Time
Civil Twilight
Nautical Twilight
Astronomical Twilight
Moon
Length of Visible Light
Length of Day
Tomorrow will be .
, % of the Moon is Illuminated

Today's Extremes

State Highs State Lows

Community

WunderPhotos

Upload Photos

1,962,540 photos uploaded!

WunderBlog® & News

Nearby

Air Quality

  Air Quality AQ Index Pollutant
Not available.

Snow Depth

Station Depth Elevation

Earthquake Activity

City Distance Mag. Time & Date
Minimum magnitude displayed is 2.5.

Earthquake Activity

City Distance Mag. Time & Date
Minimum magnitude displayed is 2.5.

Coastal Water Temperatures

Place Temperature

Stations

Nearby Weather Stations

Station Location Temp. Windchill Dew Point Humidity Wind Precip. Elev Updated Type
                   

Watches & Warnings

Fire Weather Watch
Issued: 3:06 AM MDT Mar. 27, 2017 – National Weather Service

... Fire Weather Watch in effect from Tuesday afternoon through
Tuesday evening for relative humidity of 15% or less, 20 foot
winds of 20 mph or greater, and high to very high fire danger...

* wind... mountains, west 25 to 45 mph with higher gusts.
         Plains, southwest to west 20 to 35 mph with higher gusts.

* Humidity... 12 to 15%.

* Impacts... any fires that develop will likely spread rapidly.
Outdoor burning is not recommended.

Precautionary/preparedness actions...

A Fire Weather Watch means that critical fire weather conditions
are forecast to occur. Listen for later forecasts and possible
red flag warnings.